createdAt,value
2018-09-06T00:01:55.736Z,78.18
2018-09-06T00:04:24.558Z,77.95
2018-09-06T00:06:53.579Z,78.11
2018-09-06T00:09:22.341Z,77.86
2018-09-06T00:11:51.851Z,77.80
2018-09-06T00:14:20.640Z,78.24
2018-09-06T00:16:49.378Z,77.88
2018-09-06T00:19:17.989Z,77.91
2018-09-06T00:21:46.780Z,78.08
2018-09-06T00:24:15.751Z,77.81
2018-09-06T00:26:44.674Z,77.91
2018-09-06T00:29:13.352Z,77.52
2018-09-06T00:31:42.064Z,77.60
2018-09-06T00:34:10.695Z,77.48
2018-09-06T00:36:39.492Z,77.60
2018-09-06T00:39:08.952Z,77.25
2018-09-06T00:41:37.672Z,77.08
2018-09-06T00:44:06.788Z,77.49
2018-09-06T00:46:35.470Z,77.61
2018-09-06T00:49:04.193Z,77.91
2018-09-06T00:51:32.896Z,77.53
2018-09-06T00:54:01.920Z,77.74
2018-09-06T00:56:30.586Z,78.79
2018-09-06T00:58:59.386Z,78.27
2018-09-06T01:01:28.154Z,78.42
2018-09-06T01:03:57.098Z,78.22
2018-09-06T01:06:25.723Z,77.79
2018-09-06T01:08:54.399Z,77.90
2018-09-06T01:11:23.073Z,77.60
2018-09-06T01:13:51.928Z,77.89
2018-09-06T01:16:20.677Z,78.17
2018-09-06T01:18:49.403Z,78.44
2018-09-06T01:21:18.146Z,78.41
2018-09-06T01:23:46.824Z,78.10
2018-09-06T01:26:15.548Z,78.31
2018-09-06T01:28:44.209Z,78.78
2018-09-06T01:31:12.839Z,79.18
2018-09-06T01:33:41.552Z,78.99
2018-09-06T01:36:15.658Z,79.17
2018-09-06T01:38:44.312Z,79.10
2018-09-06T01:41:13.010Z,79.08
2018-09-06T01:43:41.928Z,79.16
2018-09-06T01:46:10.822Z,79.46
2018-09-06T01:48:39.849Z,79.33
2018-09-06T01:51:08.669Z,79.02
2018-09-06T01:53:37.562Z,79.16
2018-09-06T01:56:06.478Z,79.04
2018-09-06T01:58:35.188Z,79.42
2018-09-06T02:01:03.960Z,78.97
2018-09-06T02:03:32.793Z,78.79
2018-09-06T02:06:01.877Z,79.06
2018-09-06T02:08:30.707Z,78.74
2018-09-06T02:10:59.648Z,79.10
2018-09-06T02:13:28.486Z,78.71
2018-09-06T02:15:57.460Z,79.03
2018-09-06T02:18:26.500Z,78.89
2018-09-06T02:20:55.308Z,78.88
2018-09-06T02:23:24.120Z,79.02
2018-09-06T02:25:52.927Z,78.92
2018-09-06T02:28:21.622Z,79.09
2018-09-06T02:30:50.568Z,78.93
2018-09-06T02:33:19.670Z,79.22
2018-09-06T02:35:48.545Z,78.84
2018-09-06T02:38:17.522Z,78.65
2018-09-06T02:40:46.393Z,78.58
2018-09-06T02:43:15.064Z,78.77
2018-09-06T02:45:44.806Z,78.76
2018-09-06T02:48:13.576Z,78.69
2018-09-06T02:50:47.823Z,78.56
2018-09-06T02:53:16.647Z,78.66
2018-09-06T02:55:46.407Z,78.86
2018-09-06T02:58:15.114Z,78.27
2018-09-06T03:00:43.868Z,78.44
2018-09-06T03:03:12.969Z,78.40
2018-09-06T03:05:41.800Z,78.76
2018-09-06T03:08:10.749Z,78.77
2018-09-06T03:10:43.528Z,78.40
2018-09-06T03:13:12.249Z,78.54
2018-09-06T03:15:40.962Z,78.33
2018-09-06T03:18:09.989Z,78.30
2018-09-06T03:20:38.855Z,78.59
2018-09-06T03:23:07.628Z,78.49
2018-09-06T03:25:36.494Z,78.46
2018-09-06T03:28:05.709Z,78.37
2018-09-06T03:30:34.497Z,78.06
2018-09-06T03:33:03.669Z,78.25
2018-09-06T03:35:32.777Z,78.16
2018-09-06T03:38:01.684Z,78.12
2018-09-06T03:40:30.390Z,78.31
2018-09-06T03:42:59.135Z,78.22
2018-09-06T03:45:27.734Z,78.20
2018-09-06T03:47:56.362Z,78.05
2018-09-06T03:50:25.076Z,78.23
2018-09-06T03:52:53.843Z,78.15
2018-09-06T03:55:22.670Z,78.12
2018-09-06T03:57:51.478Z,77.87
2018-09-06T04:00:20.391Z,78.24
2018-09-06T04:02:49.047Z,78.15
2018-09-06T04:05:18.078Z,77.64
2018-09-06T04:07:46.868Z,77.63
2018-09-06T04:10:15.540Z,77.67
2018-09-06T04:12:44.287Z,78.13
2018-09-06T04:15:13.015Z,77.88
2018-09-06T04:17:41.611Z,77.79
2018-09-06T04:20:10.560Z,77.63
2018-09-06T04:22:43.885Z,77.49
2018-09-06T04:25:12.748Z,77.21
2018-09-06T04:27:41.531Z,77.20
2018-09-06T04:30:10.660Z,77.40
2018-09-06T04:32:39.491Z,77.30
2018-09-06T04:35:08.261Z,77.30
2018-09-06T04:37:36.938Z,76.90
2018-09-06T04:40:05.796Z,77.08
2018-09-06T04:42:34.799Z,77.08
2018-09-06T04:45:03.836Z,77.04
2018-09-06T04:47:32.695Z,76.74
2018-09-06T04:50:01.672Z,76.87
2018-09-06T04:52:30.481Z,77.06
2018-09-06T04:54:59.093Z,76.51
2018-09-06T04:57:27.734Z,76.29
2018-09-06T04:59:56.628Z,76.34
2018-09-06T05:02:25.389Z,76.70
2018-09-06T05:04:54.018Z,76.47
2018-09-06T05:07:22.779Z,76.54
2018-09-06T05:09:51.598Z,76.59
2018-09-06T05:12:20.226Z,76.83
2018-09-06T05:14:49.346Z,76.11
2018-09-06T05:17:18.427Z,76.26
2018-09-06T05:19:47.184Z,76.47
2018-09-06T05:22:15.820Z,76.46
2018-09-06T05:24:44.581Z,75.82
2018-09-06T05:27:13.302Z,75.59
2018-09-06T05:29:41.873Z,74.87
2018-09-06T05:32:10.559Z,74.69
2018-09-06T05:34:39.439Z,74.02
2018-09-06T05:37:08.217Z,73.98
2018-09-06T05:39:37.008Z,73.52
2018-09-06T05:42:05.768Z,72.43
2018-09-06T05:44:34.511Z,72.51
2018-09-06T05:47:03.435Z,72.49
2018-09-06T05:49:32.154Z,72.65
2018-09-06T05:52:01.124Z,72.99
2018-09-06T05:54:29.938Z,73.44
2018-09-06T05:56:58.748Z,73.67
2018-09-06T05:59:27.483Z,73.56
2018-09-06T06:01:56.107Z,73.24
2018-09-06T06:04:24.797Z,73.04
2018-09-06T06:06:53.447Z,72.72
2018-09-06T06:09:22.300Z,72.73
2018-09-06T06:11:51.292Z,72.52
2018-09-06T06:14:20.063Z,72.59
2018-09-06T06:16:48.819Z,71.75
2018-09-06T06:19:17.650Z,71.48
2018-09-06T06:21:46.323Z,71.30
2018-09-06T06:24:15.215Z,71.07
2018-09-06T06:26:43.957Z,70.85
2018-09-06T06:29:12.774Z,70.86
2018-09-06T06:31:41.384Z,71.48
2018-09-06T06:34:10.274Z,71.71
2018-09-06T06:36:39.191Z,71.85
2018-09-06T06:39:10.911Z,72.11
2018-09-06T06:41:39.787Z,72.39
2018-09-06T06:44:08.626Z,72.13
2018-09-06T06:46:37.364Z,72.15
2018-09-06T06:49:06.575Z,71.88
2018-09-06T06:51:35.464Z,71.70
2018-09-06T06:54:04.584Z,71.90
2018-09-06T06:56:33.433Z,71.97
2018-09-06T06:59:02.116Z,72.38
2018-09-06T07:01:30.817Z,72.91
2018-09-06T07:03:59.544Z,72.52
2018-09-06T07:06:28.357Z,72.57
2018-09-06T07:08:57.057Z,72.53
2018-09-06T07:11:25.920Z,72.33
2018-09-06T07:13:54.916Z,73.20
2018-09-06T07:16:23.639Z,72.86
2018-09-06T07:18:53.062Z,73.68
2018-09-06T07:21:21.952Z,73.95
2018-09-06T07:23:50.911Z,73.63
2018-09-06T07:26:19.617Z,73.76
2018-09-06T07:28:48.506Z,73.32
2018-09-06T07:31:17.325Z,73.09
2018-09-06T07:33:46.070Z,72.60
2018-09-06T07:36:15.079Z,72.29
2018-09-06T07:38:44.153Z,72.39
2018-09-06T07:41:13.255Z,72.60
2018-09-06T07:43:42.220Z,73.28
2018-09-06T07:46:11.080Z,72.79
2018-09-06T07:48:39.910Z,72.76
2018-09-06T07:51:08.618Z,72.66
2018-09-06T07:53:37.280Z,73.10
2018-09-06T07:56:06.052Z,72.71
2018-09-06T07:58:34.787Z,72.83
2018-09-06T08:01:03.517Z,72.54
2018-09-06T08:03:32.437Z,72.76
2018-09-06T08:06:01.310Z,72.90
2018-09-06T08:08:30.229Z,72.77
2018-09-06T08:10:59.020Z,72.94
2018-09-06T08:13:27.808Z,72.79
2018-09-06T08:15:56.450Z,73.83
2018-09-06T08:18:25.242Z,74.01
2018-09-06T08:20:54.230Z,74.26
2018-09-06T08:23:23.143Z,74.62
2018-09-06T08:25:52.112Z,74.91
2018-09-06T08:28:20.849Z,74.34
2018-09-06T08:30:49.866Z,74.04
2018-09-06T08:33:18.745Z,73.80
2018-09-06T08:35:47.768Z,73.90
2018-09-06T08:38:16.726Z,73.21
2018-09-06T08:40:45.860Z,73.85
2018-09-06T08:43:14.668Z,73.58
2018-09-06T08:45:43.669Z,73.06
2018-09-06T08:48:12.476Z,72.67
2018-09-06T08:50:41.221Z,72.38
2018-09-06T08:53:09.905Z,72.27
2018-09-06T08:55:38.569Z,71.70
2018-09-06T08:58:07.184Z,71.55
2018-09-06T09:00:38.224Z,71.58
2018-09-06T09:03:07.182Z,70.87
2018-09-06T09:05:36.103Z,70.64
2018-09-06T09:08:05.383Z,70.41
2018-09-06T09:10:34.083Z,70.32
2018-09-06T09:13:02.987Z,70.29
2018-09-06T09:15:31.623Z,69.94
2018-09-06T09:18:00.351Z,69.45
2018-09-06T09:20:29.067Z,68.95
2018-09-06T09:22:57.832Z,69.71
2018-09-06T09:25:26.709Z,68.79
2018-09-06T09:27:55.616Z,68.87
2018-09-06T09:30:24.436Z,69.06
2018-09-06T09:32:53.542Z,69.40
2018-09-06T09:35:22.458Z,69.13
2018-09-06T09:37:51.168Z,68.77
2018-09-06T09:40:20.181Z,68.58
2018-09-06T09:42:49.750Z,68.59
2018-09-06T09:45:18.454Z,68.63
2018-09-06T09:47:47.328Z,68.71
2018-09-06T09:52:44.395Z,68.17
2018-09-06T09:55:13.037Z,67.49
2018-09-06T09:57:41.917Z,68.31
2018-09-06T10:00:10.581Z,68.20
2018-09-06T10:02:44.708Z,68.29
2018-09-06T10:05:18.799Z,68.00
2018-09-06T10:07:52.801Z,67.55
2018-09-06T10:10:21.960Z,67.63
2018-09-06T10:12:50.625Z,66.76
2018-09-06T10:15:19.604Z,66.35
2018-09-06T10:17:48.533Z,65.48
2018-09-06T10:20:17.720Z,65.60
2018-09-06T10:22:46.765Z,64.38
2018-09-06T10:25:15.485Z,64.21
2018-09-06T10:27:44.784Z,63.76
2018-09-06T10:30:13.695Z,64.23
2018-09-06T10:32:42.617Z,63.32
2018-09-06T10:35:11.761Z,63.57
2018-09-06T10:37:40.836Z,63.23
2018-09-06T10:40:09.193Z,62.30
2018-09-06T10:42:38.208Z,62.99
2018-09-06T10:45:07.325Z,60.70
2018-09-06T10:47:35.959Z,60.85
2018-09-06T10:50:05.928Z,57.76
2018-09-06T10:52:34.694Z,61.47
2018-09-06T10:55:03.624Z,57.06
2018-09-06T10:57:32.549Z,59.70
2018-09-06T11:00:01.366Z,57.33
2018-09-06T11:02:30.188Z,55.89
2018-09-06T11:04:59.088Z,54.36
2018-09-06T11:07:28.011Z,51.97
2018-09-06T11:09:56.995Z,46.52
2018-09-06T11:12:25.892Z,46.70
2018-09-06T11:14:54.921Z,45.68
2018-09-06T11:17:23.712Z,43.08
2018-09-06T11:19:52.387Z,44.56
2018-09-06T11:22:21.385Z,40.90
2018-09-06T11:24:50.331Z,41.56
2018-09-06T11:27:18.996Z,40.45
2018-09-06T11:29:47.910Z,39.34
2018-09-06T11:32:17.118Z,39.76
2018-09-06T11:34:45.865Z,40.46
2018-09-06T11:37:14.961Z,39.82
2018-09-06T11:39:43.607Z,37.40
2018-09-06T11:42:13.030Z,37.51
2018-09-06T11:44:41.296Z,37.16
2018-09-06T11:47:10.319Z,36.73
2018-09-06T11:49:39.087Z,35.01
2018-09-06T11:52:08.392Z,35.79
2018-09-06T11:54:37.214Z,35.22
2018-09-06T11:57:06.257Z,35.76
2018-09-06T11:59:35.293Z,35.21
2018-09-06T12:02:04.492Z,36.24
2018-09-06T12:04:33.086Z,36.17
2018-09-06T12:07:01.783Z,34.30
2018-09-06T12:09:30.666Z,34.53
2018-09-06T12:11:59.619Z,33.14
2018-09-06T12:14:28.322Z,32.85
2018-09-06T12:16:56.983Z,32.64
2018-09-06T12:19:25.620Z,33.14
2018-09-06T12:21:54.547Z,33.72
2018-09-06T12:24:23.476Z,32.44
2018-09-06T12:26:52.217Z,34.10
2018-09-06T12:29:21.199Z,33.21
2018-09-06T12:31:50.179Z,31.28
2018-09-06T12:34:19.209Z,33.25
2018-09-06T12:36:48.749Z,32.71
2018-09-06T12:39:17.607Z,30.93
2018-09-06T12:41:46.324Z,32.01
2018-09-06T12:44:15.448Z,33.52
2018-09-06T12:46:44.443Z,31.71
2018-09-06T12:49:13.223Z,29.92
2018-09-06T12:51:42.244Z,32.68
2018-09-06T12:54:10.934Z,30.85
2018-09-06T12:56:39.991Z,30.46
2018-09-06T12:59:08.849Z,32.50
2018-09-06T13:01:37.556Z,31.59
2018-09-06T13:04:06.759Z,31.32
2018-09-06T13:06:35.485Z,29.05
2018-09-06T13:09:05.361Z,30.86
2018-09-06T13:11:33.961Z,30.94
2018-09-06T13:14:02.677Z,29.90
2018-09-06T13:16:31.562Z,29.78
2018-09-06T13:19:00.499Z,29.42
2018-09-06T13:21:29.204Z,29.05
2018-09-06T13:23:57.797Z,28.16
2018-09-06T13:26:26.637Z,28.60
2018-09-06T13:28:55.381Z,27.76
2018-09-06T13:31:24.597Z,26.13
2018-09-06T13:33:53.289Z,23.72
2018-09-06T13:36:22.246Z,23.69
2018-09-06T13:38:51.094Z,26.49
2018-09-06T13:41:19.972Z,27.56
2018-09-06T13:43:48.807Z,27.42
2018-09-06T13:46:17.833Z,29.09
2018-09-06T13:48:46.773Z,29.74
2018-09-06T13:51:15.616Z,28.95
2018-09-06T13:53:44.421Z,29.30
2018-09-06T13:56:13.288Z,29.05
2018-09-06T13:58:42.128Z,28.22
2018-09-06T14:01:11.106Z,26.37
2018-09-06T14:03:39.910Z,23.50
2018-09-06T14:06:08.938Z,22.25
2018-09-06T14:08:37.932Z,20.51
2018-09-06T14:11:06.739Z,21.34
2018-09-06T14:13:35.475Z,20.43
2018-09-06T14:16:04.310Z,19.66
2018-09-06T14:18:33.061Z,19.54
2018-09-06T14:21:01.903Z,19.40
2018-09-06T14:23:30.726Z,19.78
2018-09-06T14:25:59.495Z,18.15
2018-09-06T14:28:28.070Z,19.16
2018-09-06T14:30:56.890Z,18.64
2018-09-06T14:33:25.948Z,19.34
2018-09-06T14:35:54.866Z,19.04
2018-09-06T14:38:23.703Z,20.62
2018-09-06T14:40:52.537Z,21.28
2018-09-06T14:43:21.340Z,21.55
2018-09-06T14:45:50.035Z,21.05
2018-09-06T14:48:18.809Z,21.16
2018-09-06T14:50:47.820Z,22.26
2018-09-06T14:53:16.516Z,22.05
2018-09-06T14:55:45.157Z,22.89
2018-09-06T14:58:13.939Z,23.05
2018-09-06T15:00:43.101Z,22.85
2018-09-06T15:03:11.723Z,22.39
2018-09-06T15:05:40.395Z,23.37
2018-09-06T15:08:09.371Z,23.22
2018-09-06T15:10:38.632Z,23.67
2018-09-06T15:13:07.623Z,25.43
2018-09-06T15:15:36.261Z,26.69
2018-09-06T15:18:04.938Z,29.23
2018-09-06T15:20:33.832Z,30.96
2018-09-06T15:23:02.760Z,31.73
2018-09-06T15:25:31.444Z,33.19
2018-09-06T15:28:00.442Z,34.74
2018-09-06T15:30:29.369Z,35.49
2018-09-06T15:32:58.162Z,36.57
2018-09-06T15:35:26.976Z,36.83
2018-09-06T15:37:56.052Z,36.57
2018-09-06T15:40:25.964Z,36.40
2018-09-06T15:42:54.679Z,37.93
2018-09-06T15:45:23.507Z,39.27
2018-09-06T15:47:52.610Z,38.97
2018-09-06T15:50:21.569Z,39.27
2018-09-06T15:52:50.488Z,40.90
2018-09-06T15:55:19.177Z,42.17
2018-09-06T15:57:47.960Z,43.30
2018-09-06T16:00:16.624Z,44.26
2018-09-06T16:02:45.473Z,45.49
2018-09-06T16:05:14.516Z,46.38
2018-09-06T16:07:43.875Z,46.73
2018-09-06T16:10:12.558Z,47.73
2018-09-06T16:12:41.241Z,48.67
2018-09-06T16:15:10.361Z,48.59
2018-09-06T16:17:39.324Z,48.61
2018-09-06T16:20:09.198Z,49.56
2018-09-06T16:22:38.179Z,50.22
2018-09-06T16:25:06.933Z,50.59
2018-09-06T16:27:35.810Z,50.83
2018-09-06T16:30:05.229Z,51.67
2018-09-06T16:32:34.001Z,51.78
2018-09-06T16:35:02.761Z,52.07
2018-09-06T16:37:31.502Z,52.42
2018-09-06T16:40:00.381Z,53.06
2018-09-06T16:42:29.114Z,53.11
2018-09-06T16:44:57.991Z,53.51
2018-09-06T16:47:26.669Z,54.04
2018-09-06T16:49:55.627Z,54.06
2018-09-06T16:52:24.264Z,54.49
2018-09-06T16:54:53.376Z,54.77
2018-09-06T16:57:22.250Z,56.00
2018-09-06T16:59:51.001Z,56.09
2018-09-06T17:02:19.895Z,56.11
2018-09-06T17:04:49.280Z,56.60
2018-09-06T17:07:18.090Z,56.81
2018-09-06T17:09:46.942Z,57.03
2018-09-06T17:12:15.858Z,57.20
2018-09-06T17:14:44.547Z,57.31
2018-09-06T17:17:13.317Z,57.88
2018-09-06T17:19:41.990Z,57.89
2018-09-06T17:22:10.652Z,58.33
2018-09-06T17:24:39.487Z,58.62
2018-09-06T17:27:08.268Z,59.22
2018-09-06T17:29:36.943Z,59.48
2018-09-06T17:32:05.690Z,59.88
2018-09-06T17:34:34.568Z,60.07
2018-09-06T17:37:03.764Z,60.57
2018-09-06T17:39:32.878Z,60.93
2018-09-06T17:42:01.783Z,60.86
2018-09-06T17:44:30.693Z,60.77
2018-09-06T17:46:59.570Z,61.64
2018-09-06T17:49:28.631Z,61.87
2018-09-06T17:51:57.232Z,61.55
2018-09-06T17:54:26.264Z,61.70
2018-09-06T17:56:55.008Z,62.06
2018-09-06T17:59:24.117Z,62.07
2018-09-06T18:01:53.115Z,62.86
2018-09-06T18:04:22.091Z,63.16
2018-09-06T18:06:51.713Z,63.73
2018-09-06T18:09:20.469Z,63.00
2018-09-06T18:11:49.156Z,63.47
2018-09-06T18:14:18.144Z,63.47
2018-09-06T18:16:46.833Z,63.81
2018-09-06T18:19:15.477Z,63.60
2018-09-06T18:21:44.474Z,63.80
2018-09-06T18:24:13.447Z,64.76
2018-09-06T18:26:42.246Z,65.37
2018-09-06T18:29:11.050Z,65.28
2018-09-06T18:31:39.878Z,65.15
2018-09-06T18:34:08.788Z,65.62
2018-09-06T18:36:37.727Z,65.93
2018-09-06T18:39:07.637Z,65.78
2018-09-06T18:41:37.182Z,66.10
2018-09-06T18:44:05.961Z,66.59
2018-09-06T18:46:34.864Z,66.21
2018-09-06T18:49:03.918Z,66.44
2018-09-06T18:51:32.786Z,66.47
2018-09-06T18:54:01.536Z,66.75
2018-09-06T18:56:30.380Z,66.81
2018-09-06T18:58:59.208Z,67.20
2018-09-06T19:01:28.055Z,67.16
2018-09-06T19:03:57.449Z,67.16
2018-09-06T19:06:26.529Z,67.75
2018-09-06T19:08:55.251Z,67.82
2018-09-06T19:11:24.329Z,67.61
2018-09-06T19:13:53.142Z,67.96
2018-09-06T19:16:21.881Z,68.16
2018-09-06T19:18:51.177Z,68.34
2018-09-06T19:21:20.105Z,68.50
2018-09-06T19:23:49.017Z,68.62
2018-09-06T19:26:17.958Z,68.81
2018-09-06T19:28:46.707Z,69.06
2018-09-06T19:31:15.606Z,69.36
2018-09-06T19:33:44.386Z,69.53
2018-09-06T19:36:13.057Z,70.15
2018-09-06T19:38:41.876Z,69.99
2018-09-06T19:41:10.751Z,70.54
2018-09-06T19:43:39.558Z,70.21
2018-09-06T19:46:08.515Z,70.54
2018-09-06T19:48:37.889Z,71.09
2018-09-06T19:51:07.021Z,70.93
2018-09-06T19:53:35.817Z,71.09
2018-09-06T19:56:04.723Z,71.06
2018-09-06T19:58:33.436Z,70.80
2018-09-06T20:01:02.146Z,71.15
2018-09-06T20:03:30.805Z,71.35
2018-09-06T20:05:59.746Z,71.85
2018-09-06T20:08:28.737Z,71.79
2018-09-06T20:10:57.775Z,71.60
2018-09-06T20:13:26.493Z,71.42
2018-09-06T20:15:55.259Z,71.58
2018-09-06T20:18:24.931Z,71.62
2018-09-06T20:20:53.673Z,71.70
2018-09-06T20:23:22.388Z,71.98
2018-09-06T20:25:51.333Z,71.36
2018-09-06T20:28:20.115Z,71.70
2018-09-06T20:30:49.015Z,71.78
2018-09-06T20:33:17.868Z,72.07
2018-09-06T20:35:46.841Z,71.84
2018-09-06T20:38:15.559Z,71.69
2018-09-06T20:40:44.293Z,71.93
2018-09-06T20:43:12.971Z,71.80
2018-09-06T20:45:41.599Z,71.95
2018-09-06T20:48:10.432Z,72.14
2018-09-06T20:50:39.168Z,72.12
2018-09-06T20:53:08.192Z,72.48
2018-09-06T20:55:36.928Z,72.05
2018-09-06T20:58:05.829Z,72.11
2018-09-06T21:00:34.686Z,72.22
2018-09-06T21:03:03.308Z,72.09
2018-09-06T21:05:32.294Z,72.54
2018-09-06T21:08:01.214Z,72.47
2018-09-06T21:10:30.082Z,72.92
2018-09-06T21:12:59.474Z,73.18
2018-09-06T21:15:28.247Z,73.08
2018-09-06T21:17:57.087Z,73.07
2018-09-06T21:20:25.867Z,72.87
2018-09-06T21:22:54.459Z,72.85
2018-09-06T21:25:23.237Z,72.81
2018-09-06T21:27:52.073Z,73.31
2018-09-06T21:30:21.034Z,72.93
2018-09-06T21:32:49.859Z,73.34
2018-09-06T21:35:18.748Z,73.77
2018-09-06T21:40:22.880Z,74.08
2018-09-06T21:42:51.861Z,73.68
2018-09-06T21:45:20.752Z,74.10
2018-09-06T21:47:49.554Z,73.73
2018-09-06T21:50:18.182Z,73.85
2018-09-06T21:52:46.947Z,73.54
2018-09-06T21:55:15.619Z,74.33
2018-09-06T21:57:44.414Z,73.68
2018-09-06T22:00:13.114Z,73.48
2018-09-06T22:02:47.098Z,73.41
2018-09-06T22:05:15.811Z,73.90
2018-09-06T22:07:44.503Z,73.74
2018-09-06T22:10:13.520Z,74.26
2018-09-06T22:12:42.243Z,74.05
2018-09-06T22:15:11.075Z,73.74
2018-09-06T22:17:39.915Z,73.68
2018-09-06T22:20:08.702Z,74.08
2018-09-06T22:22:37.330Z,73.89
2018-09-06T22:25:06.453Z,73.70
2018-09-06T22:27:35.318Z,74.21
2018-09-06T22:30:04.827Z,73.89
2018-09-06T22:32:33.690Z,73.76
2018-09-06T22:35:02.411Z,73.81
2018-09-06T22:37:31.497Z,74.01
2018-09-06T22:40:00.570Z,74.02
2018-09-06T22:42:29.267Z,73.64
2018-09-06T22:44:57.959Z,73.88
2018-09-06T22:47:26.685Z,73.89
2018-09-06T22:49:55.402Z,73.67
2018-09-06T22:52:24.138Z,73.69
2018-09-06T22:54:53.011Z,74.07
2018-09-06T22:57:21.603Z,74.06
2018-09-06T22:59:50.255Z,74.18
2018-09-06T23:02:18.966Z,74.17
2018-09-06T23:04:47.681Z,74.02
2018-09-06T23:07:16.486Z,73.88
2018-09-06T23:09:45.416Z,74.10
2018-09-06T23:12:14.083Z,74.39
2018-09-06T23:14:42.763Z,74.03
2018-09-06T23:17:11.413Z,74.43
2018-09-06T23:19:40.027Z,74.65
2018-09-06T23:22:08.803Z,74.63
2018-09-06T23:24:37.694Z,74.73
2018-09-06T23:27:06.472Z,74.66
2018-09-06T23:29:35.162Z,74.48
2018-09-06T23:32:04.768Z,74.52
2018-09-06T23:34:36.877Z,74.61
2018-09-06T23:37:06.619Z,74.25
2018-09-06T23:39:35.776Z,74.25
2018-09-06T23:42:04.457Z,74.71
2018-09-06T23:44:33.313Z,74.59
2018-09-06T23:47:02.579Z,74.67
2018-09-06T23:49:31.299Z,74.54
2018-09-06T23:52:00.102Z,74.56
2018-09-06T23:54:29.109Z,74.49
2018-09-06T23:56:57.702Z,74.40
2018-09-06T23:59:26.399Z,74.67
